Time;durP1;ratioP1;P1;durP2;ratioP2;P2;SDS_P1;SDS_P2;PMS_P1;PMS_P2;Temp;Humidity;BMP_temperature;BMP_pressure;BME280_temperature;BME280_humidity;BME280_pressure;Samples;Min_cycle;Max_cycle;Signal;HPM_P1;HPM_P2
2022/12/26 00:02:19;;;;;;;37.67;20.47;;;;;;;3.43;100.00;101197.44;1423514;91;22247;-86
2022/12/26 00:04:45;;;;;;;41.90;23.53;;;;;;;3.41;100.00;101192.74;1450259;90;21359;-87
2022/12/26 00:07:11;;;;;;;34.90;21.63;;;;;;;3.43;100.00;101198.75;1412350;91;21359;-89
2022/12/26 00:09:37;;;;;;;42.23;21.47;;;;;;;3.47;100.00;101194.19;1445148;90;21546;-88
2022/12/26 00:12:03;;;;;;;38.37;21.03;;;;;;;3.52;100.00;101193.01;1424339;91;21382;-88
2022/12/26 00:14:29;;;;;;;48.80;22.70;;;;;;;3.57;100.00;101188.38;1445286;90;21374;-91
2022/12/26 00:16:56;;;;;;;45.70;23.10;;;;;;;3.60;100.00;101196.05;1424094;91;21449;-91
2022/12/26 00:19:22;;;;;;;42.00;22.50;;;;;;;3.63;100.00;101187.66;1449688;90;21425;-89
2022/12/26 00:21:49;;;;;;;43.67;22.70;;;;;;;3.63;100.00;101187.19;1423458;91;21433;-88
2022/12/26 00:24:15;;;;;;;47.13;23.17;;;;;;;3.61;100.00;101182.02;1448475;90;21469;-88
2022/12/26 00:26:41;;;;;;;42.57;22.33;;;;;;;3.61;100.00;101182.02;1430868;91;21525;-89
2022/12/26 00:29:07;;;;;;;41.67;21.40;;;;;;;3.61;100.00;101168.10;1450615;90;21373;-89
2022/12/26 00:31:34;;;;;;;42.73;23.43;;;;;;;3.61;100.00;101175.48;1428972;91;21529;-88
2022/12/26 00:34:01;;;;;;;38.80;21.93;;;;;;;3.64;100.00;101172.33;1446995;90;22042;-89
2022/12/26 00:36:31;;;;;;;45.87;22.57;;;;;;;3.65;100.00;101166.15;1426265;91;21381;-90
2022/12/26 00:39:00;;;;;;;41.50;23.57;;;;;;;3.66;100.00;101155.61;1449785;90;21610;-88
2022/12/26 00:41:28;;;;;;;42.43;22.60;;;;;;;3.69;100.00;101154.59;1431577;91;21456;-90
2022/12/26 00:43:54;;;;;;;47.73;25.90;;;;;;;3.70;100.00;101148.42;1448389;90;22261;-89
2022/12/26 00:46:21;;;;;;;45.20;22.20;;;;;;;3.66;100.00;101148.22;1427679;91;21442;-88
2022/12/26 00:48:48;;;;;;;48.30;24.83;;;;;;;3.65;100.00;101157.83;1451595;90;21446;-89
2022/12/26 00:51:15;;;;;;;39.40;23.47;;;;;;;3.65;100.00;101147.82;1426343;91;21389;-89
2022/12/26 00:53:41;;;;;;;41.70;24.50;;;;;;;3.67;100.00;101149.90;1442797;90;21507;-90
2022/12/26 00:56:07;;;;;;;41.83;25.30;;;;;;;3.70;100.00;101149.26;1428207;91;21621;-91
2022/12/26 00:58:34;;;;;;;44.70;23.93;;;;;;;3.74;100.00;101160.39;1452563;90;22231;-90
2022/12/26 01:01:16;;;;;;;39.90;24.40;;;;;;;3.78;100.00;101164.55;1431851;91;21396;-91
2022/12/26 01:03:43;;;;;;;41.50;23.23;;;;;;;3.82;100.00;101155.58;1435902;90;22433;-89
2022/12/26 01:06:11;;;;;;;44.07;25.80;;;;;;;3.87;100.00;101161.88;1426911;91;21367;-87
2022/12/26 01:08:37;;;;;;;43.97;24.77;;;;;;;3.91;100.00;101160.28;1453959;90;21489;-87
2022/12/26 01:11:07;;;;;;;49.63;26.53;;;;;;;3.98;100.00;101153.78;1425945;91;21396;-87
2022/12/26 01:13:35;;;;;;;49.53;26.33;;;;;;;4.02;100.00;101153.97;1448306;90;21513;-85
2022/12/26 01:16:02;;;;;;;45.93;26.83;;;;;;;4.07;100.00;101160.27;1430687;91;22597;-88
2022/12/26 01:18:29;;;;;;;42.57;25.40;;;;;;;4.11;100.00;101165.70;1446287;90;22613;-87
2022/12/26 01:21:01;;;;;;;47.07;27.90;;;;;;;4.16;100.00;101162.83;1435578;91;21404;-89
2022/12/26 01:23:28;;;;;;;37.67;22.83;;;;;;;4.17;100.00;101155.34;1446877;90;21514;-88
2022/12/26 01:25:54;;;;;;;41.40;26.73;;;;;;;4.20;100.00;101157.34;1424889;91;22351;-88
2022/12/26 01:28:21;;;;;;;40.37;23.67;;;;;;;4.22;100.00;101156.76;1448384;90;21352;-87
2022/12/26 01:30:47;;;;;;;41.30;26.23;;;;;;;4.25;100.00;101152.65;1426002;91;21514;-87
2022/12/26 01:33:13;;;;;;;37.30;23.07;;;;;;;4.27;100.00;101147.33;1448774;90;21374;-88
2022/12/26 01:35:48;;;;;;;46.40;25.80;;;;;;;4.28;100.00;101143.30;1425131;91;21382;-89
2022/12/26 01:38:15;;;;;;;42.03;24.70;;;;;;;4.26;100.00;101137.80;1446928;90;21358;-86
2022/12/26 01:40:44;;;;;;;39.37;23.13;;;;;;;4.22;100.00;101140.20;1412946;91;22283;-87
2022/12/26 01:43:13;;;;;;;38.73;24.07;;;;;;;4.18;100.00;101136.92;1447834;90;21403;-86
2022/12/26 01:45:41;;;;;;;34.30;21.43;;;;;;;4.19;100.00;101132.05;1424501;91;21545;-87
2022/12/26 01:48:21;;;;;;;36.77;20.77;;;;;;;4.20;100.00;101118.03;1445443;90;21395;-87
2022/12/26 01:51:04;;;;;;;30.00;20.53;;;;;;;4.22;100.00;101108.76;1427371;91;21403;-84
2022/12/26 01:53:36;;;;;;;30.90;19.87;;;;;;;4.28;100.00;101114.47;1451182;90;21501;-86
2022/12/26 01:56:08;;;;;;;28.60;17.90;;;;;;;4.36;100.00;101102.23;1424740;91;22351;-88
2022/12/26 01:58:42;;;;;;;33.37;20.13;;;;;;;4.41;100.00;101093.64;1445418;90;21484;-87
2022/12/26 02:01:10;;;;;;;27.83;18.00;;;;;;;4.47;100.00;101088.03;1429238;91;21464;-86
2022/12/26 02:06:25;;;;;;;31.07;20.10;;;;;;;4.53;100.00;101067.98;1429151;91;21433;-88
2022/12/26 02:08:52;;;;;;;28.50;19.13;;;;;;;4.59;100.00;101086.44;1449439;90;21581;-87
2022/12/26 02:11:27;;;;;;;30.33;18.27;;;;;;;4.62;100.00;101080.17;1426327;91;22269;-87
2022/12/26 02:13:53;;;;;;;34.93;18.67;;;;;;;4.68;100.00;101082.41;1449106;90;21484;-87
2022/12/26 02:16:20;;;;;;;27.53;18.30;;;;;;;4.69;100.00;101081.02;1427830;91;21344;-89
2022/12/26 02:18:46;;;;;;;27.37;18.90;;;;;;;4.73;100.00;101077.73;1447010;90;21424;-90
2022/12/26 02:21:41;;;;;;;27.83;15.97;;;;;;;4.74;100.00;101080.25;1432245;91;21338;-90
2022/12/26 02:24:28;;;;;;;33.77;19.83;;;;;;;4.75;100.00;101088.98;1451755;90;21684;-87
2022/12/26 02:27:12;;;;;;;28.93;17.80;;;;;;;4.75;100.00;101095.54;1424527;91;21626;-87
2022/12/26 02:30:08;;;;;;;35.07;18.83;;;;;;;4.73;100.00;101094.78;1450294;90;21477;-89
2022/12/26 02:33:00;;;;;;;27.17;18.20;;;;;;;4.75;100.00;101086.36;1428843;91;21555;-88
2022/12/26 02:36:03;;;;;;;26.53;16.93;;;;;;;4.72;100.00;101095.25;1441775;90;21565;-89
2022/12/26 02:38:58;;;;;;;32.23;18.03;;;;;;;4.69;100.00;101102.44;1389248;94;21695;-87
2022/12/26 02:41:38;;;;;;;29.23;17.27;;;;;;;4.65;100.00;101098.34;1471804;88;21441;-86
2022/12/26 02:47:33;;;;;;;31.27;18.03;;;;;;;4.68;100.00;101089.80;1470196;88;22239;-86
2022/12/26 03:13:32;;;;;;;33.63;20.33;;;;;;;4.70;100.00;101066.12;1461688;88;21433;-87
2022/12/26 03:18:55;;;;;;;36.83;23.10;;;;;;;4.63;100.00;101066.11;1470707;88;21426;-89
2022/12/26 03:21:27;;;;;;;31.65;19.45;;;;;;;4.61;100.00;101073.25;1477242;88;21449;-89
2022/12/26 03:23:55;;;;;;;37.00;21.90;;;;;;;4.57;100.00;101066.02;1473834;88;21402;-87
2022/12/26 03:26:38;;;;;;;33.17;21.03;;;;;;;4.57;100.00;101086.16;1478998;88;21375;-89
2022/12/26 03:31:41;;;;;;;31.40;19.97;;;;;;;4.62;100.00;101063.13;1419200;88;21440;-90
2022/12/26 03:34:17;;;;;;;30.63;18.87;;;;;;;4.65;100.00;101059.84;1477723;88;22240;-90
2022/12/26 03:37:33;;;;;;;27.83;17.83;;;;;;;4.65;100.00;101061.63;1482829;88;21346;-88
2022/12/26 04:44:42;;;;;;;30.83;20.87;;;;;;;4.43;100.00;101045.91;1470131;88;21493;-93
2022/12/26 04:47:09;;;;;;;31.83;20.90;;;;;;;4.46;100.00;101044.41;1475378;88;21360;-93
2022/12/26 04:52:53;;;;;;;30.13;20.30;;;;;;;4.48;100.00;101043.83;1475069;88;21368;-91
2022/12/26 04:54:56;;;;;;;33.90;22.13;;;;;;;4.51;100.00;101043.64;1470957;88;21492;-90
2022/12/26 04:57:23;;;;;;;33.00;23.50;;;;;;;4.52;100.00;101045.81;1477647;88;22204;-88
2022/12/26 04:59:49;;;;;;;31.50;19.80;;;;;;;4.49;100.00;101038.98;1474818;88;21360;-88
2022/12/26 05:10:27;;;;;;;32.03;20.20;;;;;;;4.54;100.00;101037.37;1437616;88;21500;-90
2022/12/26 05:12:54;;;;;;;29.50;19.03;;;;;;;4.54;100.00;101037.37;1474106;88;21456;-87
2022/12/26 05:15:21;;;;;;;30.90;22.23;;;;;;;4.50;100.00;101035.41;1475311;88;22093;-87
2022/12/26 05:29:06;;;;;;;26.10;17.90;;;;;;;4.61;100.00;101020.81;1470325;88;21360;-86
2022/12/26 05:31:33;;;;;;;28.40;17.90;;;;;;;4.62;100.00;101019.39;1474498;88;21489;-86
2022/12/26 05:34:09;;;;;;;27.37;17.93;;;;;;;4.62;100.00;101018.08;1476657;88;21346;-86
2022/12/26 05:36:40;;;;;;;29.97;18.77;;;;;;;4.61;100.00;101020.81;1470509;88;21345;-86
2022/12/26 05:39:08;;;;;;;21.25;13.88;;;;;;;4.59;100.00;101015.66;1474819;88;22373;-87
2022/12/26 05:41:35;;;;;;;24.03;15.20;;;;;;;4.56;100.00;101003.20;1465807;88;21426;-88
2022/12/26 05:44:02;;;;;;;20.33;13.20;;;;;;;4.57;100.00;101006.20;1470354;88;22297;-85
2022/12/26 05:46:28;;;;;;;18.50;11.43;;;;;;;4.58;100.00;101005.27;1470336;88;21353;-88
2022/12/26 05:48:54;;;;;;;18.40;12.17;;;;;;;4.62;100.00;101008.07;1465791;88;21368;-88
2022/12/26 05:51:20;;;;;;;26.60;12.50;;;;;;;4.64;100.00;101013.59;1471636;88;22446;-87
2022/12/26 05:53:47;;;;;;;20.63;11.77;;;;;;;4.66;100.00;100999.93;1472608;88;21368;-88
2022/12/26 05:56:16;;;;;;;21.07;12.53;;;;;;;4.71;100.00;101008.80;1458692;88;21302;-86
2022/12/26 05:58:42;;;;;;;22.70;12.03;;;;;;;4.72;100.00;101002.64;1467323;88;21338;-86
2022/12/26 06:01:18;;;;;;;16.00;10.80;;;;;;;4.75;100.00;101001.13;1473042;88;21404;-86
2022/12/26 06:03:52;;;;;;;18.50;10.53;;;;;;;4.74;100.00;100992.87;1470126;88;21382;-86
2022/12/26 06:06:19;;;;;;;16.00;11.07;;;;;;;4.70;100.00;100996.16;1475383;88;22299;-87
2022/12/26 06:08:49;;;;;;;16.90;10.83;;;;;;;4.66;100.00;100985.95;1477237;88;21390;-86
2022/12/26 06:11:17;;;;;;;18.37;11.00;;;;;;;4.64;100.00;100982.61;1469016;88;21456;-86
2022/12/26 06:13:44;;;;;;;15.13;10.17;;;;;;;4.61;100.00;100981.48;1472471;88;21352;-86
2022/12/26 06:16:14;;;;;;;16.70;9.23;;;;;;;4.61;100.00;100986.26;1471758;88;21419;-86
2022/12/26 06:18:41;;;;;;;15.43;8.87;;;;;;;4.62;100.00;100990.55;1471253;88;21359;-89
2022/12/26 06:21:11;;;;;;;16.17;9.10;;;;;;;4.63;100.00;100988.33;1471368;88;21522;-87
2022/12/26 06:23:37;;;;;;;14.07;8.40;;;;;;;4.64;100.00;100977.36;1468954;88;21315;-84
2022/12/26 06:26:06;;;;;;;14.07;8.33;;;;;;;4.66;100.00;100966.28;1466143;88;21361;-87
2022/12/26 06:28:33;;;;;;;14.47;8.57;;;;;;;4.63;100.00;100969.97;1475616;88;21405;-88
2022/12/26 06:31:06;;;;;;;13.63;10.10;;;;;;;4.66;100.00;100972.84;1472154;88;21523;-85
2022/12/26 06:33:33;;;;;;;12.17;9.47;;;;;;;4.67;100.00;100972.77;1473998;88;21603;-88
2022/12/26 06:36:09;;;;;;;15.90;11.00;;;;;;;4.64;100.00;100966.88;1465882;88;21368;-85
2022/12/26 06:38:36;;;;;;;16.20;11.43;;;;;;;4.61;100.00;100971.00;1466774;88;21427;-87
2022/12/26 06:41:05;;;;;;;17.43;11.40;;;;;;;4.58;100.00;100975.13;1475042;88;22320;-85
2022/12/26 06:43:32;;;;;;;15.30;10.33;;;;;;;4.58;100.00;100971.20;1468542;88;21397;-84
2022/12/26 06:46:00;;;;;;;16.03;9.90;;;;;;;4.60;100.00;100966.67;1474469;88;22195;-85
2022/12/26 06:48:27;;;;;;;15.73;9.73;;;;;;;4.65;100.00;100965.92;1477562;88;21544;-88
2022/12/26 06:50:54;;;;;;;13.30;10.03;;;;;;;4.69;100.00;100952.98;1465673;88;22329;-87
2022/12/26 06:53:22;;;;;;;13.90;9.37;;;;;;;4.73;100.00;100947.45;1476957;88;21522;-88
2022/12/26 06:55:49;;;;;;;12.83;9.93;;;;;;;4.79;100.00;100952.78;1481786;88;22329;-87
2022/12/26 06:58:16;;;;;;;16.00;10.17;;;;;;;4.75;100.00;100950.00;1468145;88;21427;-84
2022/12/26 07:00:43;;;;;;;14.03;9.30;;;;;;;4.74;100.00;100954.38;1470264;88;22292;-84
2022/12/26 07:03:12;;;;;;;15.30;10.43;;;;;;;4.72;100.00;100952.81;1472483;88;21317;-89
2022/12/26 07:05:39;;;;;;;17.97;9.93;;;;;;;4.68;100.00;100967.88;1477912;88;22479;-86
2022/12/26 07:08:06;;;;;;;15.13;9.77;;;;;;;4.70;100.00;100973.88;1465501;88;21286;-87
2022/12/26 07:10:35;;;;;;;15.47;8.50;;;;;;;4.74;100.00;100967.96;1472087;88;22152;-87
2022/12/26 07:13:03;;;;;;;15.27;8.80;;;;;;;4.80;100.00;100967.56;1470931;88;22305;-85
2022/12/26 07:15:30;;;;;;;12.90;9.17;;;;;;;4.86;100.00;100961.96;1470267;88;21397;-85
2022/12/26 07:17:57;;;;;;;16.33;8.30;;;;;;;4.89;100.00;100963.08;1469108;88;21464;-88
2022/12/26 07:20:25;;;;;;;13.70;9.00;;;;;;;4.96;100.00;100960.89;1467131;88;22219;-88
2022/12/26 07:22:54;;;;;;;10.33;8.00;;;;;;;5.01;100.00;100963.23;1467667;88;21826;-87
2022/12/26 07:25:21;;;;;;;16.43;11.80;;;;;;;5.05;100.00;100962.91;1474686;88;21671;-89
2022/12/26 07:27:53;;;;;;;32.10;20.60;;;;;;;5.09;100.00;100960.48;1467100;88;21507;-88
2022/12/26 07:30:20;;;;;;;31.73;17.23;;;;;;;5.12;100.00;100945.86;1473161;88;22286;-86
2022/12/26 07:32:48;;;;;;;22.33;14.50;;;;;;;5.17;100.00;100950.78;1471030;88;21338;-90
2022/12/26 07:35:15;;;;;;;15.33;10.30;;;;;;;5.22;100.00;100943.45;1473402;88;21272;-88
2022/12/26 07:37:45;;;;;;;16.53;11.07;;;;;;;5.27;100.00;100944.00;1472058;88;22240;-90
2022/12/26 07:40:12;;;;;;;15.93;10.63;;;;;;;5.30;100.00;100941.66;1475740;88;21308;-88
2022/12/26 07:42:39;;;;;;;14.47;10.70;;;;;;;5.30;100.00;100947.73;1475946;88;21390;-89
2022/12/26 07:45:08;;;;;;;15.80;11.70;;;;;;;5.28;100.00;100948.30;1475820;88;23040;-88
2022/12/26 07:47:35;;;;;;;18.07;10.90;;;;;;;5.28;100.00;100948.30;1471585;88;21509;-89
2022/12/26 07:50:03;;;;;;;17.10;11.80;;;;;;;5.31;100.00;100959.91;1472749;88;21501;-86
2022/12/26 07:52:30;;;;;;;15.27;11.03;;;;;;;5.35;100.00;100954.84;1479973;88;21573;-86
2022/12/26 07:54:58;;;;;;;23.47;11.40;;;;;;;5.40;100.00;100952.73;1478516;88;21419;-87
2022/12/26 07:57:25;;;;;;;18.10;10.60;;;;;;;5.47;100.00;100945.76;1478769;88;22264;-86
2022/12/26 07:59:52;;;;;;;19.43;11.87;;;;;;;5.52;100.00;100938.42;1470445;88;21346;-87
2022/12/26 08:02:19;;;;;;;15.53;11.70;;;;;;;5.59;100.00;100944.97;1469664;88;21331;-87
2022/12/26 08:04:46;;;;;;;14.03;9.77;;;;;;;5.62;100.00;100937.71;1475999;88;22380;-88
2022/12/26 08:07:13;;;;;;;15.00;8.70;;;;;;;5.64;100.00;100942.40;1477653;88;21330;-89
2022/12/26 08:09:43;;;;;;;16.30;10.77;;;;;;;5.69;100.00;100949.11;1476344;88;21338;-88
2022/12/26 08:12:11;;;;;;;13.17;9.13;;;;;;;5.68;100.00;100949.59;1466979;88;21508;-88
2022/12/26 08:14:39;;;;;;;16.63;10.57;;;;;;;5.68;100.00;100958.78;1466508;88;21397;-88
2022/12/26 08:17:07;;;;;;;14.57;9.70;;;;;;;5.70;100.00;100960.84;1474214;88;21471;-89
2022/12/26 08:19:34;;;;;;;25.53;17.50;;;;;;;5.72;100.00;100956.30;1477790;88;22174;-88
2022/12/26 08:22:02;;;;;;;19.40;14.03;;;;;;;5.77;100.00;100960.78;1477770;88;21361;-89
2022/12/26 08:24:29;;;;;;;29.30;19.17;;;;;;;5.89;100.00;100964.36;1473487;88;21382;-90
2022/12/26 08:26:56;;;;;;;27.77;17.00;;;;;;;6.00;100.00;100968.92;1471191;88;21396;-91
2022/12/26 08:29:23;;;;;;;21.73;14.33;;;;;;;6.18;100.00;100976.84;1465581;88;22263;-88
2022/12/26 08:31:51;;;;;;;20.83;12.63;;;;;;;6.35;100.00;100973.53;1468087;88;21474;-90
2022/12/26 08:34:18;;;;;;;16.17;11.30;;;;;;;6.47;100.00;100974.84;1462104;88;21368;-80
2022/12/26 08:36:45;;;;;;;15.13;10.70;;;;;;;6.56;100.00;100979.94;1467607;88;21441;-80
2022/12/26 08:39:12;;;;;;;15.30;9.43;;;;;;;6.64;100.00;100989.41;1474397;88;21398;-82
2022/12/26 08:41:40;;;;;;;17.67;11.27;;;;;;;6.67;100.00;100994.45;1472579;88;22255;-82
2022/12/26 08:44:13;;;;;;;13.50;9.07;;;;;;;6.66;100.00;100992.78;1472143;88;21396;-81
2022/12/26 08:46:40;;;;;;;13.63;9.47;;;;;;;6.73;100.00;100991.41;1468535;88;22381;-81
2022/12/26 08:49:07;;;;;;;15.47;8.30;;;;;;;6.75;100.00;100986.86;1464402;88;21427;-83
2022/12/26 08:51:43;;;;;;;11.87;9.13;;;;;;;6.78;100.00;100990.59;1471888;88;22329;-87
2022/12/26 08:54:11;;;;;;;16.83;11.07;;;;;;;6.82;100.00;100971.95;1465623;88;21332;-87
2022/12/26 08:56:38;;;;;;;34.97;17.90;;;;;;;6.87;100.00;100978.56;1477467;88;22358;-84
2022/12/26 08:59:05;;;;;;;29.40;18.63;;;;;;;6.91;100.00;100973.95;1454455;88;21375;-84
2022/12/26 09:01:32;;;;;;;18.10;12.07;;;;;;;6.95;100.00;100974.08;1467072;88;21376;-85
2022/12/26 09:04:02;;;;;;;16.70;11.73;;;;;;;6.93;100.00;100975.52;1470510;88;21560;-84
2022/12/26 09:06:33;;;;;;;17.20;11.23;;;;;;;6.91;100.00;100968.68;1447641;88;21411;-80
2022/12/26 09:09:01;;;;;;;23.12;13.93;;;;;;;6.91;100.00;100962.10;1471282;88;21389;-80
2022/12/26 09:11:29;;;;;;;17.17;11.80;;;;;;;6.94;100.00;100966.66;1472564;88;21375;-79
2022/12/26 09:13:59;;;;;;;24.23;13.27;;;;;;;6.92;100.00;100962.45;1462078;88;22275;-80
2022/12/26 09:16:30;;;;;;;20.13;13.20;;;;;;;6.94;100.00;100955.30;1476088;88;21434;-80
2022/12/26 09:19:00;;;;;;;17.20;11.73;;;;;;;7.03;100.00;100956.42;1482910;88;21567;-80
2022/12/26 09:21:29;;;;;;;22.07;12.53;;;;;;;7.04;100.00;100949.72;1468605;88;21375;-79
2022/12/26 09:23:59;;;;;;;21.37;12.37;;;;;;;7.05;100.00;100945.28;1482787;88;21420;-80
2022/12/26 09:26:26;;;;;;;16.05;10.53;;;;;;;7.07;100.00;100953.44;1452320;88;21544;-80
2022/12/26 09:28:54;;;;;;;17.23;10.47;;;;;;;7.14;100.00;100956.00;1472412;88;21323;-80
2022/12/26 09:31:26;;;;;;;18.83;11.10;;;;;;;7.18;100.00;100953.49;1469716;88;21465;-79
2022/12/26 09:33:54;;;;;;;19.70;12.20;;;;;;;7.18;99.93;100954.81;1476439;88;21506;-80
2022/12/26 09:36:29;;;;;;;17.57;9.67;;;;;;;7.21;100.00;100955.90;1466789;88;22305;-80
2022/12/26 09:38:58;;;;;;;20.20;11.57;;;;;;;7.23;100.00;100954.48;1474348;88;21456;-78
2022/12/26 09:42:09;;;;;;;18.53;11.67;;;;;;;7.28;100.00;100958.08;1468722;88;21272;-80
2022/12/26 09:45:12;;;;;;;25.32;12.40;;;;;;;7.30;100.00;100945.64;1458071;88;21456;-79
2022/12/26 09:48:07;;;;;;;18.00;12.17;;;;;;;7.35;100.00;100947.47;1467147;88;21441;-79
2022/12/26 09:50:37;;;;;;;31.80;13.93;;;;;;;7.45;100.00;100952.39;1479499;88;22070;-80
2022/12/26 09:53:09;;;;;;;18.73;11.03;;;;;;;7.48;99.31;100962.73;1475986;88;21426;-79
2022/12/26 09:55:47;;;;;;;19.10;10.67;;;;;;;7.52;99.97;100961.53;1474076;88;21382;-81
2022/12/26 09:58:45;;;;;;;18.63;12.73;;;;;;;7.52;99.54;100964.16;1470207;88;22451;-80
2022/12/26 10:01:19;;;;;;;10.83;8.23;;;;;;;7.46;98.59;100950.98;1475939;88;21410;-82
2022/12/26 10:04:10;;;;;;;13.80;9.67;;;;;;;7.39;97.75;100941.00;1473423;88;21353;-82
2022/12/26 10:07:10;;;;;;;14.60;8.95;;;;;;;7.35;98.47;100939.56;1447325;89;21337;-81
2022/12/26 10:10:08;;;;;;;19.93;9.63;;;;;;;7.32;98.71;100927.95;1449147;89;21500;-82
2022/12/26 10:12:59;;;;;;;19.40;10.40;;;;;;;7.37;99.37;100942.94;1448894;89;21426;-79
2022/12/26 10:15:54;;;;;;;;;;;;;;;7.38;99.50;100944.60;1465041;88;21389;-81
2022/12/26 10:18:29;;;;;;;12.70;8.67;;;;;;;7.35;99.20;100934.30;1454179;88;20421;-80
2022/12/26 10:21:25;;;;;;;15.90;9.03;;;;;;;7.41;99.26;100929.89;1374061;89;21471;-81
2022/12/26 10:23:59;;;;;;;17.47;9.17;;;;;;;7.47;99.75;100921.52;1530606;89;21214;-80
2022/12/26 10:26:35;;;;;;;17.60;9.33;;;;;;;7.55;100.00;100925.73;1375425;89;21316;-81
2022/12/26 10:29:23;;;;;;;17.20;10.43;;;;;;;7.62;100.00;100920.38;1385908;89;21486;-82
2022/12/26 10:31:56;;;;;;;17.33;10.93;;;;;;;7.61;99.29;100918.69;1446077;89;21545;-82
2022/12/26 10:34:40;;;;;;;16.43;11.00;;;;;;;7.60;99.09;100911.75;1459984;88;22380;-83
2022/12/26 10:37:33;;;;;;;16.63;11.23;;;;;;;7.62;98.89;100897.99;1532885;88;21354;-82
2022/12/26 10:40:17;;;;;;;19.97;12.37;;;;;;;7.57;98.33;100895.34;1518189;88;21325;-79
2022/12/26 10:42:56;;;;;;;17.57;10.10;;;;;;;7.62;98.93;100891.41;1534526;88;21311;-82
2022/12/26 10:45:50;;;;;;;14.83;10.33;;;;;;;7.69;98.91;100893.92;1423761;89;21252;-82
2022/12/26 10:48:17;;;;;;;22.03;11.73;;;;;;;7.75;99.14;100887.34;1530471;88;21317;-79
2022/12/26 10:50:48;;;;;;;16.90;11.77;;;;;;;7.75;97.97;100893.09;1528102;89;21184;-83
2022/12/26 10:53:16;;;;;;;15.70;10.60;;;;;;;7.69;97.61;100892.59;1379620;88;21354;-80
2022/12/26 10:55:44;;;;;;;22.90;13.00;;;;;;;7.73;98.47;100892.36;1390985;89;21302;-81
2022/12/26 10:58:22;;;;;;;24.73;14.27;;;;;;;7.74;99.03;100896.21;1402536;87;21374;-80
2022/12/26 11:00:50;;;;;;;31.13;15.60;;;;;;;7.75;98.99;100899.68;1513383;90;21287;-80
2022/12/26 11:03:20;;;;;;;17.73;11.47;;;;;;;7.79;99.48;100905.06;1418356;89;21375;-81
2022/12/26 11:05:54;;;;;;;18.37;12.88;;;;;;;7.81;98.96;100893.94;1456514;89;21372;-83
2022/12/26 11:08:26;;;;;;;19.03;11.50;;;;;;;7.76;98.41;100885.54;1445372;88;21360;-81
2022/12/26 11:11:12;;;;;;;25.87;12.27;;;;;;;7.72;98.39;100882.80;1444261;89;21500;-83
2022/12/26 11:13:48;;;;;;;21.63;13.93;;;;;;;7.71;98.73;100878.46;1447613;89;22219;-81
2022/12/26 11:16:36;;;;;;;18.53;11.73;;;;;;;7.59;98.48;100870.54;1459730;88;21494;-83
2022/12/26 11:19:04;;;;;;;21.47;13.67;;;;;;;7.61;98.96;100876.53;1439619;89;21463;-83
2022/12/26 11:21:32;;;;;;;17.53;13.53;;;;;;;7.61;99.14;100875.70;1458671;87;21501;-83
2022/12/26 11:24:19;;;;;;;20.37;14.23;;;;;;;7.60;99.74;100870.92;1452357;88;21376;-82
2022/12/26 11:26:47;;;;;;;28.83;15.23;;;;;;;7.56;99.46;100868.14;1457391;88;21508;-84
2022/12/26 11:29:26;;;;;;;21.90;14.57;;;;;;;7.58;100.00;100875.94;1442854;89;21509;-83
2022/12/26 11:32:01;;;;;;;21.27;13.53;;;;;;;7.60;100.00;100866.97;1448626;89;21619;-84
2022/12/26 11:34:44;;;;;;;22.47;14.20;;;;;;;7.66;100.00;100859.91;1531321;87;22009;-82
2022/12/26 11:37:27;;;;;;;28.50;14.87;;;;;;;7.72;100.00;100864.34;1539446;87;21281;-83
2022/12/26 11:39:56;;;;;;;29.60;17.20;;;;;;;7.79;100.00;100868.17;1543760;87;21249;-83
2022/12/26 11:42:24;;;;;;;36.83;22.37;;;;;;;7.76;99.92;100863.97;1391461;89;21391;-81
2022/12/26 11:44:55;;;;;;;21.17;15.10;;;;;;;7.83;100.00;100869.62;1389298;89;21272;-79
2022/12/26 11:47:28;;;;;;;25.27;16.62;;;;;;;7.85;100.00;100867.69;1403722;87;21345;-81
2022/12/26 11:50:09;;;;;;;24.70;16.03;;;;;;;7.86;100.00;100881.25;1453204;89;21427;-81
2022/12/26 11:52:52;;;;;;;;;;;;;;;7.96;100.00;100882.19;1449335;88;22219;-81
2022/12/26 11:55:32;;;;;;;29.00;16.60;;;;;;;7.94;100.00;100876.23;1446429;88;20360;-80
2022/12/26 11:58:17;;;;;;;23.30;14.47;;;;;;;8.00;100.00;100859.06;1530096;89;21361;-80
2022/12/26 12:00:53;;;;;;;23.27;13.10;;;;;;;8.04;100.00;100861.34;1381004;91;21292;-82
2022/12/26 12:03:29;;;;;;;22.30;14.80;;;;;;;8.02;100.00;100854.52;1389438;89;21395;-81
2022/12/26 12:06:04;;;;;;;20.57;14.13;;;;;;;8.09;100.00;100847.81;1397529;89;21502;-81
2022/12/26 12:08:56;;;;;;;20.60;13.53;;;;;;;8.16;100.00;100858.22;1529841;89;22225;-82
2022/12/26 12:11:49;;;;;;;20.77;14.53;;;;;;;8.19;100.00;100853.19;1529022;89;22169;-80
2022/12/26 12:15:00;;;;;;;19.47;13.27;;;;;;;8.25;100.00;100848.25;1534986;89;21185;-81
2022/12/26 12:17:39;;;;;;;25.72;16.23;;;;;;;8.24;100.00;100851.03;1541986;88;21169;-80
2022/12/26 12:20:43;;;;;;;17.57;11.40;;;;;;;8.26;100.00;100844.68;1540726;89;22217;-80
2022/12/26 12:23:40;;;;;;;24.33;14.40;;;;;;;8.31;100.00;100847.77;1456314;89;21346;-82
2022/12/26 12:26:15;;;;;;;25.60;15.80;;;;;;;8.25;100.00;100832.92;1393912;89;21375;-81
2022/12/26 12:29:10;;;;;;;27.53;15.77;;;;;;;8.28;100.00;100832.67;1383862;89;21243;-82
2022/12/26 12:32:10;;;;;;;35.77;19.57;;;;;;;8.29;100.00;100834.38;1533091;89;22238;-82
2022/12/26 12:35:08;;;;;;;70.90;36.23;;;;;;;8.30;100.00;100849.22;1526735;89;21331;-82
2022/12/26 12:37:58;;;;;;;24.93;15.83;;;;;;;8.33;100.00;100856.88;1379561;89;21249;-81
2022/12/26 12:40:40;;;;;;;31.48;20.30;;;;;;;8.39;100.00;100853.78;1534686;89;21206;-82
2022/12/26 12:43:47;;;;;;;53.17;25.40;;;;;;;8.41;100.00;100846.59;1526396;89;21257;-81
2022/12/26 12:46:42;;;;;;;42.10;22.27;;;;;;;8.47;100.00;100864.56;1382255;89;21427;-82
2022/12/26 12:49:35;;;;;;;24.77;15.30;;;;;;;8.52;100.00;100865.04;1530161;89;21184;-81
2022/12/26 12:52:20;;;;;;;20.47;13.60;;;;;;;8.64;100.00;100857.09;1544806;87;21169;-81
2022/12/26 12:55:07;;;;;;;20.87;15.43;;;;;;;8.68;100.00;100858.51;1528848;89;22039;-81
2022/12/26 12:57:55;;;;;;;22.93;15.10;;;;;;;8.68;100.00;100847.95;1378396;87;21302;-82
2022/12/26 13:00:26;;;;;;;21.97;13.30;;;;;;;8.66;100.00;100855.15;1367519;92;21295;-81
2022/12/26 13:03:28;;;;;;;20.47;14.30;;;;;;;8.65;100.00;100856.95;1366468;91;21243;-81
2022/12/26 13:06:21;;;;;;;27.30;15.73;;;;;;;8.64;100.00;100847.86;1391998;91;21213;-82
2022/12/26 13:08:59;;;;;;;29.23;18.07;;;;;;;8.63;100.00;100850.13;1489510;89;21406;-81
2022/12/26 13:11:37;;;;;;;29.37;17.23;;;;;;;8.62;100.00;100845.82;1527745;89;21185;-81
2022/12/26 13:14:12;;;;;;;27.83;15.57;;;;;;;8.65;100.00;100840.29;1530299;89;21126;-79
2022/12/26 13:16:44;;;;;;;25.10;16.93;;;;;;;8.62;100.00;100835.27;1534063;89;21273;-81
2022/12/26 13:19:27;;;;;;;21.83;16.27;;;;;;;8.61;100.00;100840.20;1532288;89;21280;-82
2022/12/26 13:22:00;;;;;;;25.90;16.50;;;;;;;8.60;100.00;100841.97;1530778;87;22094;-81
2022/12/26 13:24:42;;;;;;;30.37;19.07;;;;;;;8.59;100.00;100841.63;1414278;89;21603;-83
2022/12/26 13:27:23;;;;;;;32.27;20.63;;;;;;;8.59;100.00;100843.78;1450104;89;21427;-82
2022/12/26 13:29:51;;;;;;;30.07;19.30;;;;;;;8.59;100.00;100844.27;1446901;89;21537;-81
2022/12/26 13:32:26;;;;;;;30.93;19.43;;;;;;;8.61;100.00;100846.30;1432934;89;21511;-80
2022/12/26 13:34:57;;;;;;;30.10;18.33;;;;;;;8.61;100.00;100855.54;1446192;88;22204;-81
2022/12/26 13:37:42;;;;;;;28.50;18.10;;;;;;;8.64;100.00;100855.78;1404508;90;21397;-82
2022/12/26 13:40:19;;;;;;;31.73;18.87;;;;;;;8.64;100.00;100860.56;1437164;89;21479;-81
2022/12/26 13:45:51;;;;;;;26.90;17.87;;;;;;;8.65;100.00;100864.04;1416459;92;22707;-83
2022/12/26 13:48:31;;;;;;;30.57;19.10;;;;;;;8.67;100.00;100860.31;1432007;91;22520;-82